Time;durP1;ratioP1;P1;durP2;ratioP2;P2;SDS_P1;SDS_P2;PMS_P1;PMS_P2;Temp;Humidity;BMP_temperature;BMP_pressure;BME280_temperature;BME280_humidity;BME280_pressure;Samples;Min_cycle;Max_cycle;Signal;HPM_P1;HPM_P2
2023/06/10 00:01:43;;;;;;;6.18;2.78;;;19.10;84.80;;;;;;4921849;29;20040;-80
2023/06/10 00:04:09;;;;;;;6.75;3.10;;;19.10;85.20;;;;;;4910414;29;20044;-80
2023/06/10 00:06:37;;;;;;;6.03;3.10;;;19.10;86.20;;;;;;4924777;29;20047;-81
2023/06/10 00:09:10;;;;;;;6.43;2.90;;;19.00;86.30;;;;;;4904424;29;20052;-81
2023/06/10 00:11:37;;;;;;;8.80;3.40;;;19.00;86.80;;;;;;4895885;29;20048;-80
2023/06/10 00:14:03;;;;;;;5.57;2.78;;;18.90;87.30;;;;;;4944089;29;20054;-80
2023/06/10 00:16:30;;;;;;;6.28;3.30;;;18.90;87.70;;;;;;4930240;29;20468;-80
2023/06/10 00:19:00;;;;;;;12.93;3.45;;;18.80;88.20;;;;;;4915174;29;20130;-79
2023/06/10 00:21:26;;;;;;;6.38;2.85;;;18.80;88.50;;;;;;4927252;29;20052;-80
2023/06/10 00:23:52;;;;;;;8.05;3.65;;;18.70;89.00;;;;;;4913276;29;20778;-80
2023/06/10 00:26:18;;;;;;;7.03;2.75;;;18.80;89.80;;;;;;4906653;29;20496;-80
2023/06/10 00:28:45;;;;;;;8.07;3.05;;;18.70;90.00;;;;;;4910383;29;20059;-80
2023/06/10 00:31:11;;;;;;;8.90;3.05;;;18.60;90.40;;;;;;4931970;29;20052;-79
2023/06/10 00:33:36;;;;;;;7.70;3.60;;;18.60;90.70;;;;;;4902062;29;20149;-79
2023/06/10 00:36:02;;;;;;;7.20;3.25;;;18.50;91.00;;;;;;4910122;29;21015;-79
2023/06/10 00:38:28;;;;;;;10.77;3.58;;;18.50;91.00;;;;;;4926096;29;20048;-79
2023/06/10 00:40:54;;;;;;;6.70;3.35;;;18.50;91.30;;;;;;4896225;29;20047;-79
2023/06/10 00:43:20;;;;;;;7.43;3.35;;;18.50;91.50;;;;;;4881269;29;20442;-79
2023/06/10 00:45:47;;;;;;;7.15;3.10;;;18.50;91.60;;;;;;4908820;29;20044;-79
2023/06/10 00:48:12;;;;;;;6.10;3.17;;;18.50;92.10;;;;;;4930056;29;20130;-79
2023/06/10 00:50:41;;;;;;;10.50;3.58;;;18.40;92.60;;;;;;4927834;29;20492;-79
2023/06/10 00:53:07;;;;;;;8.77;3.45;;;18.30;92.70;;;;;;4923671;29;20052;-79
2023/06/10 00:55:33;;;;;;;7.68;3.50;;;18.20;93.40;;;;;;4916868;29;20041;-79
2023/06/10 00:57:59;;;;;;;9.00;3.65;;;18.20;93.40;;;;;;4926692;29;20040;-79
2023/06/10 01:00:25;;;;;;;8.52;3.33;;;18.20;93.60;;;;;;4904433;29;20044;-79
2023/06/10 01:02:55;;;;;;;7.05;3.25;;;18.10;94.00;;;;;;4892879;29;20458;-79
2023/06/10 01:05:21;;;;;;;8.50;3.42;;;18.10;94.40;;;;;;4894149;29;20056;-79
2023/06/10 01:07:50;;;;;;;10.60;3.50;;;18.00;94.60;;;;;;4904840;29;20139;-79
2023/06/10 01:10:34;;;;;;;10.95;3.40;;;18.00;94.80;;;;;;4922786;29;20056;-79
2023/06/10 01:13:11;;;;;;;7.38;3.35;;;18.00;94.90;;;;;;4904389;29;20059;-79
2023/06/10 01:15:37;;;;;;;8.15;3.45;;;17.90;95.20;;;;;;4903300;29;20055;-79
2023/06/10 01:18:08;;;;;;;8.18;3.38;;;17.80;95.10;;;;;;4934163;29;20080;-79
2023/06/10 01:20:34;;;;;;;10.30;3.80;;;17.80;95.70;;;;;;4887861;29;20048;-79
2023/06/10 01:23:00;;;;;;;9.02;3.75;;;17.80;95.90;;;;;;4928631;29;20057;-79
2023/06/10 01:25:32;;;;;;;9.23;3.75;;;17.70;95.90;;;;;;4902091;29;20079;-79
2023/06/10 01:28:10;;;;;;;8.93;3.60;;;17.70;96.40;;;;;;4905790;29;20048;-79
2023/06/10 01:31:15;;;;;;;9.05;3.63;;;17.70;96.40;;;;;;4920796;29;20079;-79
2023/06/10 01:33:46;;;;;;;8.75;3.70;;;17.60;96.90;;;;;;4888651;29;20129;-79
2023/06/10 01:36:12;;;;;;;8.90;3.65;;;17.50;97.30;;;;;;4865852;29;20036;-79
2023/06/10 01:38:43;;;;;;;9.82;3.47;;;17.50;97.30;;;;;;4878639;29;20071;-79
2023/06/10 01:41:10;;;;;;;8.82;3.97;;;17.50;97.50;;;;;;4923981;29;20365;-79
2023/06/10 01:43:38;;;;;;;9.75;3.55;;;17.50;97.50;;;;;;4916748;29;20347;-79
2023/06/10 01:46:03;;;;;;;8.90;3.80;;;17.50;97.80;;;;;;4919301;29;20048;-79
2023/06/10 01:48:29;;;;;;;8.60;3.67;;;17.30;98.00;;;;;;4933014;29;20055;-79
2023/06/10 01:50:55;;;;;;;9.30;3.72;;;17.40;97.90;;;;;;4924649;29;20068;-79
2023/06/10 01:53:22;;;;;;;10.05;4.13;;;17.40;98.20;;;;;;4935338;29;20047;-80
2023/06/10 01:55:48;;;;;;;7.53;3.58;;;17.30;98.20;;;;;;4937604;29;20063;-80
2023/06/10 01:58:14;;;;;;;11.27;3.88;;;17.30;98.50;;;;;;4914209;29;20041;-80
2023/06/10 02:00:40;;;;;;;8.40;4.00;;;17.20;98.60;;;;;;4915509;29;20123;-79
2023/06/10 02:03:07;;;;;;;7.13;3.75;;;17.20;98.70;;;;;;4887112;29;20095;-79
2023/06/10 02:05:33;;;;;;;7.40;3.45;;;17.10;98.90;;;;;;4929045;29;20115;-79
2023/06/10 02:08:00;;;;;;;10.13;3.75;;;17.10;99.10;;;;;;4919527;29;20048;-79
2023/06/10 02:10:26;;;;;;;9.80;4.00;;;17.10;99.30;;;;;;4903286;29;20071;-79
2023/06/10 02:12:52;;;;;;;8.43;3.45;;;17.10;99.40;;;;;;4894904;29;20040;-79
2023/06/10 02:15:17;;;;;;;8.40;3.60;;;17.00;99.40;;;;;;4941082;29;20040;-79
2023/06/10 02:17:44;;;;;;;7.97;3.40;;;17.00;99.40;;;;;;4923463;29;20051;-80
2023/06/10 02:20:10;;;;;;;10.40;4.43;;;17.00;99.40;;;;;;4903430;29;20049;-80
2023/06/10 02:22:37;;;;;;;7.57;3.92;;;16.90;99.70;;;;;;4896086;29;20339;-80
2023/06/10 02:25:03;;;;;;;9.88;4.25;;;16.90;99.80;;;;;;4904156;29;20041;-80
2023/06/10 02:27:30;;;;;;;9.93;3.80;;;16.80;99.80;;;;;;4932786;29;20056;-80
2023/06/10 02:29:56;;;;;;;12.13;4.10;;;16.80;99.90;;;;;;4922672;29;20082;-80
2023/06/10 02:32:22;;;;;;;10.18;3.95;;;16.80;99.90;;;;;;4912861;29;20528;-80
2023/06/10 02:34:48;;;;;;;11.73;3.88;;;16.70;99.90;;;;;;4896322;29;20040;-80
2023/06/10 02:37:16;;;;;;;11.27;4.35;;;16.80;99.90;;;;;;4928548;29;20040;-80
2023/06/10 02:39:42;;;;;;;9.90;3.92;;;16.80;99.90;;;;;;4924676;29;20121;-79
2023/06/10 02:42:08;;;;;;;9.68;4.20;;;16.70;99.90;;;;;;4924030;29;20477;-79
2023/06/10 02:44:33;;;;;;;9.30;4.28;;;16.70;99.90;;;;;;4938087;29;20055;-79
2023/06/10 02:47:01;;;;;;;8.50;4.50;;;16.70;99.90;;;;;;4930447;29;20059;-80
2023/06/10 02:49:28;;;;;;;11.05;4.45;;;16.60;99.90;;;;;;4914644;29;20048;-80
2023/06/10 02:51:54;;;;;;;7.15;3.53;;;16.60;99.90;;;;;;4903080;29;20087;-80
2023/06/10 02:54:20;;;;;;;11.25;4.32;;;16.60;99.90;;;;;;4895936;29;20036;-80
2023/06/10 02:56:50;;;;;;;11.75;4.82;;;16.50;99.90;;;;;;4909747;29;20052;-80
2023/06/10 02:59:16;;;;;;;9.10;4.22;;;16.50;99.90;;;;;;4903024;29;20087;-80
2023/06/10 03:01:42;;;;;;;11.02;4.18;;;16.50;99.90;;;;;;4924887;29;20446;-80
2023/06/10 03:04:12;;;;;;;9.90;4.70;;;16.40;99.90;;;;;;4896582;29;20457;-80
2023/06/10 03:06:40;;;;;;;9.60;4.20;;;16.40;99.90;;;;;;4900341;29;20050;-80
2023/06/10 03:09:07;;;;;;;10.63;4.50;;;16.30;99.90;;;;;;4930241;29;20871;-80
2023/06/10 03:11:33;;;;;;;9.63;4.05;;;16.30;99.90;;;;;;4924179;29;20044;-80
2023/06/10 03:13:59;;;;;;;10.52;4.60;;;16.30;99.90;;;;;;4902620;29;20055;-80
2023/06/10 03:16:31;;;;;;;10.32;4.00;;;16.20;99.90;;;;;;4934170;29;20044;-79
2023/06/10 03:19:00;;;;;;;12.18;3.85;;;16.20;99.90;;;;;;4895623;29;20071;-78
2023/06/10 03:21:26;;;;;;;9.75;4.38;;;16.20;99.90;;;;;;4909550;29;20051;-78
2023/06/10 03:23:52;;;;;;;9.93;4.07;;;16.20;99.90;;;;;;4915461;29;20078;-78
2023/06/10 03:26:21;;;;;;;10.73;4.28;;;16.10;99.90;;;;;;4905619;29;20529;-78
2023/06/10 03:28:47;;;;;;;10.35;4.43;;;16.00;99.90;;;;;;4898977;29;20085;-78
2023/06/10 03:31:16;;;;;;;10.35;4.38;;;16.20;99.90;;;;;;4924008;29;20044;-78
2023/06/10 03:33:42;;;;;;;9.48;4.43;;;16.00;99.90;;;;;;4911384;29;20104;-78
2023/06/10 03:36:08;;;;;;;9.98;4.32;;;16.00;99.90;;;;;;4897836;29;20044;-78
2023/06/10 03:38:35;;;;;;;10.43;4.55;;;16.00;99.90;;;;;;4911583;29;20048;-78
2023/06/10 03:41:01;;;;;;;12.95;4.22;;;16.00;99.90;;;;;;4904421;29;20114;-78
2023/06/10 03:43:31;;;;;;;8.60;4.38;;;16.10;99.90;;;;;;4907994;29;20148;-78
2023/06/10 03:46:02;;;;;;;10.00;4.30;;;16.00;99.90;;;;;;4923783;29;20044;-78
2023/06/10 03:48:28;;;;;;;9.52;4.47;;;16.00;99.90;;;;;;4917839;29;20051;-78
2023/06/10 03:51:00;;;;;;;9.77;5.05;;;16.00;99.90;;;;;;4891538;29;20464;-79
2023/06/10 03:53:26;;;;;;;13.00;5.30;;;16.00;99.90;;;;;;4892027;29;20036;-79
2023/06/10 03:55:52;;;;;;;9.50;5.20;;;16.10;99.90;;;;;;4913313;29;20056;-79
2023/06/10 03:58:18;;;;;;;11.75;4.93;;;16.00;99.90;;;;;;4902438;29;20118;-79
2023/06/10 04:00:47;;;;;;;12.23;4.80;;;16.00;99.90;;;;;;4918385;29;20795;-79
2023/06/10 04:03:14;;;;;;;13.15;4.75;;;15.90;99.90;;;;;;4917140;29;20426;-79
2023/06/10 04:05:41;;;;;;;8.77;4.38;;;15.90;99.90;;;;;;4902337;29;20048;-79
2023/06/10 04:08:08;;;;;;;11.30;5.15;;;15.90;99.90;;;;;;4889393;29;20048;-79
2023/06/10 04:10:34;;;;;;;11.55;4.50;;;15.80;99.90;;;;;;4901544;29;20761;-79
2023/06/10 04:13:00;;;;;;;15.65;5.22;;;15.90;99.90;;;;;;4905233;29;20109;-79
2023/06/10 04:15:26;;;;;;;10.73;4.50;;;16.00;99.90;;;;;;4897807;29;20430;-78
2023/06/10 04:17:58;;;;;;;12.20;5.32;;;16.00;99.90;;;;;;4886822;29;20059;-78
2023/06/10 04:20:23;;;;;;;12.30;4.93;;;16.00;99.90;;;;;;4927815;29;20084;-78
2023/06/10 04:22:50;;;;;;;8.00;4.50;;;16.00;99.90;;;;;;4925307;29;20048;-78
2023/06/10 04:25:16;;;;;;;11.73;4.40;;;16.00;99.90;;;;;;4917016;29;20051;-78
2023/06/10 04:27:42;;;;;;;10.73;4.78;;;15.90;99.90;;;;;;4912566;29;20044;-78
2023/06/10 04:30:15;;;;;;;9.85;4.75;;;16.00;99.90;;;;;;4914856;29;20078;-78
2023/06/10 04:32:41;;;;;;;11.07;4.50;;;16.00;99.90;;;;;;4917463;29;20051;-78
2023/06/10 04:35:14;;;;;;;11.05;4.78;;;16.00;99.90;;;;;;4907488;29;20045;-78
2023/06/10 04:37:41;;;;;;;12.25;4.72;;;16.00;99.90;;;;;;4938377;29;20131;-79
2023/06/10 04:40:13;;;;;;;12.73;5.50;;;15.90;99.90;;;;;;4928839;29;20040;-79
2023/06/10 04:42:39;;;;;;;10.07;4.50;;;16.00;99.90;;;;;;4914252;29;20103;-79
2023/06/10 04:45:06;;;;;;;12.70;5.22;;;16.00;99.90;;;;;;4894497;29;20410;-79
2023/06/10 04:47:33;;;;;;;12.27;5.03;;;16.00;99.90;;;;;;4882769;29;20187;-79
2023/06/10 04:50:00;;;;;;;12.15;5.10;;;16.00;99.90;;;;;;4908625;29;20426;-79
2023/06/10 04:52:29;;;;;;;8.75;4.70;;;16.00;99.90;;;;;;4891775;29;20036;-79
2023/06/10 04:54:58;;;;;;;11.73;4.53;;;16.00;99.90;;;;;;4909704;29;20080;-79
2023/06/10 04:57:23;;;;;;;10.82;4.43;;;16.10;99.90;;;;;;4913146;29;20629;-79
2023/06/10 04:59:49;;;;;;;13.50;4.95;;;16.00;99.90;;;;;;4896367;29;20044;-79
2023/06/10 05:02:15;;;;;;;11.65;5.38;;;16.10;99.90;;;;;;4886165;29;20044;-79
2023/06/10 05:04:41;;;;;;;11.02;4.72;;;16.10;99.90;;;;;;4932967;29;20044;-79
2023/06/10 05:07:07;;;;;;;9.73;4.60;;;16.10;99.90;;;;;;4917474;29;20054;-79
2023/06/10 05:09:33;;;;;;;9.75;4.38;;;16.10;99.90;;;;;;4908907;29;20429;-79
2023/06/10 05:11:58;;;;;;;11.13;5.60;;;16.10;99.90;;;;;;4917068;29;20041;-79
2023/06/10 05:14:24;;;;;;;13.52;5.50;;;16.10;99.90;;;;;;4916865;29;20056;-79
2023/06/10 05:16:50;;;;;;;9.23;4.55;;;16.10;99.90;;;;;;4932475;29;20048;-79
2023/06/10 05:19:19;;;;;;;9.00;4.47;;;16.20;99.90;;;;;;4925765;29;20044;-79
2023/06/10 05:21:45;;;;;;;13.45;5.15;;;16.20;99.90;;;;;;4892649;29;20159;-79
2023/06/10 05:24:12;;;;;;;10.18;4.95;;;16.20;99.90;;;;;;4910017;29;20041;-79
2023/06/10 05:26:39;;;;;;;11.23;4.60;;;16.10;99.90;;;;;;4881318;29;20069;-79
2023/06/10 05:29:05;;;;;;;12.15;4.57;;;16.10;99.90;;;;;;4933955;29;20497;-79
2023/06/10 05:31:34;;;;;;;12.80;4.85;;;16.20;99.90;;;;;;4889783;29;20048;-79
2023/06/10 05:34:03;;;;;;;11.07;4.80;;;16.20;99.90;;;;;;4894778;29;20044;-79
2023/06/10 05:36:30;;;;;;;9.10;4.80;;;16.30;99.90;;;;;;4932511;29;20052;-79
2023/06/10 05:38:57;;;;;;;12.02;5.20;;;16.30;99.90;;;;;;4916666;29;20088;-79
2023/06/10 05:41:25;;;;;;;9.95;4.88;;;16.20;99.90;;;;;;4882815;29;20119;-79
2023/06/10 05:43:51;;;;;;;13.63;5.35;;;16.30;99.90;;;;;;4894210;29;20041;-79
2023/06/10 05:46:17;;;;;;;11.55;5.05;;;16.30;99.90;;;;;;4925676;29;20049;-79
2023/06/10 05:48:44;;;;;;;11.50;5.20;;;16.40;99.90;;;;;;4928935;29;20037;-79
2023/06/10 05:51:10;;;;;;;11.68;5.40;;;16.40;99.90;;;;;;4894773;29;20048;-79
2023/06/10 05:53:36;;;;;;;9.80;4.82;;;16.40;99.90;;;;;;4900464;29;20040;-79
2023/06/10 05:56:02;;;;;;;15.88;5.68;;;16.50;99.90;;;;;;4911283;29;20054;-79
2023/06/10 05:58:28;;;;;;;12.65;4.93;;;16.50;99.90;;;;;;4902983;29;20371;-79
2023/06/10 06:00:53;;;;;;;13.27;5.13;;;16.60;99.90;;;;;;4892122;29;20493;-81
2023/06/10 06:03:19;;;;;;;11.70;5.22;;;16.60;99.90;;;;;;4887740;29;20048;-81
2023/06/10 06:05:46;;;;;;;12.90;5.40;;;16.70;99.90;;;;;;4918356;29;20041;-79
2023/06/10 06:08:13;;;;;;;14.38;5.57;;;16.70;99.90;;;;;;4931226;29;20533;-79
2023/06/10 06:10:39;;;;;;;10.13;4.95;;;16.70;99.90;;;;;;4920237;29;20093;-79
2023/06/10 06:13:05;;;;;;;8.85;4.60;;;16.80;99.90;;;;;;4909162;29;20048;-78
2023/06/10 06:15:30;;;;;;;9.60;4.78;;;16.80;99.90;;;;;;4929100;29;20040;-79
2023/06/10 06:17:56;;;;;;;9.70;4.57;;;16.90;99.90;;;;;;4915901;29;20045;-79
2023/06/10 06:20:22;;;;;;;11.32;5.30;;;16.90;99.90;;;;;;4928850;29;20040;-79
2023/06/10 06:22:48;;;;;;;11.18;5.45;;;17.00;99.90;;;;;;4911960;29;20060;-79
2023/06/10 06:25:14;;;;;;;12.75;5.53;;;17.00;99.90;;;;;;4903892;29;20071;-79
2023/06/10 06:27:39;;;;;;;13.50;5.50;;;16.90;99.90;;;;;;4899555;29;20037;-79
2023/06/10 06:30:06;;;;;;;10.68;5.32;;;16.90;99.90;;;;;;4914679;29;20052;-79
2023/06/10 06:32:32;;;;;;;9.05;4.93;;;16.90;99.90;;;;;;4909320;29;20351;-79
2023/06/10 06:34:58;;;;;;;13.60;5.93;;;17.00;99.90;;;;;;4934827;29;20056;-79
2023/06/10 06:37:24;;;;;;;12.68;5.20;;;16.90;99.90;;;;;;4940115;29;20051;-79
2023/06/10 06:39:51;;;;;;;13.52;5.72;;;16.80;99.90;;;;;;4930798;29;20381;-79
2023/06/10 06:42:19;;;;;;;12.45;5.22;;;16.90;99.90;;;;;;4917644;29;20056;-79
2023/06/10 06:44:45;;;;;;;;;;;16.90;99.90;;;;;;4908230;29;20470;-79
2023/06/10 06:47:11;;;;;;;11.20;4.97;;;17.00;99.90;;;;;;4920167;29;20006;-79
2023/06/10 06:49:37;;;;;;;11.90;4.93;;;17.00;99.90;;;;;;4893914;29;20537;-79
2023/06/10 06:52:03;;;;;;;11.95;5.22;;;17.10;99.90;;;;;;4883200;29;20127;-79
2023/06/10 06:54:29;;;;;;;11.35;5.32;;;17.10;99.90;;;;;;4924655;29;20071;-79
2023/06/10 06:56:57;;;;;;;12.43;5.25;;;17.20;99.90;;;;;;4934800;29;20795;-79
2023/06/10 06:59:25;;;;;;;12.70;4.80;;;17.20;99.90;;;;;;4920343;29;20052;-79
2023/06/10 07:01:51;;;;;;;11.90;4.87;;;17.30;99.90;;;;;;4908684;29;20068;-80
2023/06/10 07:04:19;;;;;;;11.88;4.97;;;17.30;99.90;;;;;;4917451;29;20044;-80
2023/06/10 07:06:46;;;;;;;11.07;4.40;;;17.40;99.90;;;;;;4934554;29;20047;-80
2023/06/10 07:09:11;;;;;;;20.55;5.03;;;17.40;99.90;;;;;;4920637;29;20402;-80
2023/06/10 07:11:37;;;;;;;11.32;4.78;;;17.50;99.90;;;;;;4903222;29;20046;-80
2023/06/10 07:14:03;;;;;;;9.27;4.60;;;17.60;99.90;;;;;;4932942;29;20786;-80
2023/06/10 07:16:29;;;;;;;11.52;4.75;;;17.60;99.90;;;;;;4910094;29;20041;-79
2023/06/10 07:18:58;;;;;;;13.40;4.72;;;17.60;99.90;;;;;;4909172;29;20067;-80
2023/06/10 07:21:24;;;;;;;10.02;4.50;;;17.70;99.90;;;;;;4929636;29;20076;-80
2023/06/10 07:23:52;;;;;;;9.70;4.65;;;17.80;99.90;;;;;;4941745;29;20434;-80
2023/06/10 07:26:18;;;;;;;10.48;4.32;;;17.80;99.90;;;;;;4914399;29;20043;-80
2023/06/10 07:28:43;;;;;;;12.95;5.05;;;17.80;99.90;;;;;;4932732;29;20530;-80
2023/06/10 07:31:09;;;;;;;11.23;4.70;;;17.90;99.90;;;;;;4908644;29;20428;-81
2023/06/10 07:33:36;;;;;;;11.23;5.15;;;17.90;99.90;;;;;;4937519;29;20036;-80
2023/06/10 07:36:02;;;;;;;11.38;4.78;;;17.90;99.90;;;;;;4922638;29;20040;-81
2023/06/10 07:38:28;;;;;;;8.30;4.45;;;18.00;99.90;;;;;;4946066;29;20051;-81
2023/06/10 07:40:54;;;;;;;10.57;4.90;;;18.10;99.90;;;;;;4905294;29;20086;-80
2023/06/10 07:43:19;;;;;;;12.57;5.30;;;18.10;99.90;;;;;;4917962;29;20381;-81
2023/06/10 07:45:45;;;;;;;7.93;4.53;;;18.20;99.90;;;;;;4922221;29;20465;-81
2023/06/10 07:48:11;;;;;;;12.07;5.63;;;18.30;99.90;;;;;;4888365;29;20048;-81
2023/06/10 07:50:36;;;;;;;11.32;4.82;;;18.30;99.90;;;;;;4926266;29;20461;-81
2023/06/10 07:53:02;;;;;;;8.50;4.43;;;18.30;99.90;;;;;;4921917;29;20045;-81
2023/06/10 07:55:28;;;;;;;13.73;5.50;;;18.30;99.90;;;;;;4920121;29;20109;-80
2023/06/10 07:57:54;;;;;;;11.20;4.38;;;18.40;99.90;;;;;;4929158;29;20048;-81
2023/06/10 08:00:20;;;;;;;12.48;5.05;;;18.50;99.90;;;;;;4937005;29;20075;-82
2023/06/10 08:02:46;;;;;;;10.02;4.65;;;18.60;99.90;;;;;;4898976;29;20052;-82
2023/06/10 08:05:12;;;;;;;8.38;4.32;;;18.70;99.90;;;;;;4935020;29;20044;-82
2023/06/10 08:07:40;;;;;;;10.63;4.82;;;18.80;99.90;;;;;;4899476;29;20541;-81
2023/06/10 08:10:06;;;;;;;10.68;5.28;;;18.80;99.90;;;;;;4909697;29;20060;-82
2023/06/10 08:12:33;;;;;;;8.25;4.35;;;18.90;99.90;;;;;;4930315;29;20052;-82
2023/06/10 08:14:59;;;;;;;16.27;5.85;;;18.90;99.90;;;;;;4907776;29;20466;-82
2023/06/10 08:17:25;;;;;;;12.52;4.63;;;19.00;99.90;;;;;;4939962;29;20098;-83
2023/06/10 08:19:51;;;;;;;14.15;4.82;;;19.10;99.90;;;;;;4933656;29;20779;-83
2023/06/10 08:22:20;;;;;;;8.52;4.35;;;19.10;99.90;;;;;;4931779;29;20051;-83
2023/06/10 08:24:45;;;;;;;9.75;4.63;;;19.20;99.90;;;;;;4921631;29;20059;-82
2023/06/10 08:27:11;;;;;;;11.63;4.97;;;19.30;99.90;;;;;;4932037;29;20048;-82
2023/06/10 08:29:37;;;;;;;14.80;4.88;;;19.40;99.90;;;;;;4932706;29;20075;-82
2023/06/10 08:32:03;;;;;;;11.60;4.85;;;19.50;99.90;;;;;;4916369;29;20454;-81
2023/06/10 08:34:29;;;;;;;10.73;4.50;;;19.50;99.90;;;;;;4901223;29;20055;-80
2023/06/10 08:36:55;;;;;;;10.48;4.28;;;19.60;99.90;;;;;;4901871;29;20040;-81
2023/06/10 08:39:24;;;;;;;11.63;5.05;;;19.70;99.90;;;;;;4931878;29;20088;-80
2023/06/10 08:42:11;;;;;;;12.00;5.38;;;19.70;99.90;;;;;;4912984;29;20058;-80
2023/06/10 08:44:38;;;;;;;10.10;5.00;;;19.70;99.90;;;;;;4914586;29;20298;-83
2023/06/10 08:47:08;;;;;;;12.65;5.28;;;19.80;99.90;;;;;;4931022;29;20048;-80
2023/06/10 08:49:34;;;;;;;10.20;5.38;;;19.90;99.90;;;;;;4928043;29;20135;-79
2023/06/10 08:52:00;;;;;;;12.95;5.38;;;20.00;99.90;;;;;;4923968;29;20044;-81
2023/06/10 08:54:31;;;;;;;9.43;5.07;;;20.00;99.90;;;;;;4930538;29;20052;-80
2023/06/10 08:56:57;;;;;;;11.05;5.60;;;20.10;99.90;;;;;;4914666;29;20054;-80
2023/06/10 08:59:24;;;;;;;12.10;5.47;;;20.20;99.90;;;;;;4934052;29;20048;-83
2023/06/10 09:01:50;;;;;;;12.23;5.07;;;20.30;99.90;;;;;;4941578;29;20044;-82
2023/06/10 09:04:17;;;;;;;13.05;5.30;;;20.40;99.90;;;;;;4943298;29;20051;-82
2023/06/10 09:06:43;;;;;;;12.82;5.65;;;20.50;99.90;;;;;;4915047;29;20047;-83
2023/06/10 09:09:09;;;;;;;12.38;5.30;;;20.50;99.90;;;;;;4912085;29;20052;-82
2023/06/10 09:11:34;;;;;;;13.38;5.10;;;20.60;99.90;;;;;;4899798;29;20048;-82
2023/06/10 09:14:03;;;;;;;10.25;5.07;;;20.60;99.90;;;;;;4900801;29;20040;-82
2023/06/10 09:16:29;;;;;;;8.80;5.18;;;20.70;99.90;;;;;;4917294;29;20585;-82
2023/06/10 09:18:59;;;;;;;11.00;4.97;;;20.80;99.90;;;;;;4906538;29;20040;-82
2023/06/10 09:21:25;;;;;;;9.55;4.93;;;20.80;99.90;;;;;;4899058;29;20040;-82
2023/06/10 09:23:51;;;;;;;11.05;5.18;;;20.90;99.90;;;;;;4942959;29;20044;-82
2023/06/10 09:26:17;;;;;;;8.88;5.07;;;21.00;99.90;;;;;;4906188;29;20056;-81
2023/06/10 09:28:44;;;;;;;11.10;5.47;;;21.10;99.90;;;;;;4916203;29;20048;-81
2023/06/10 09:31:18;;;;;;;10.30;5.50;;;21.20;99.90;;;;;;4924119;29;20047;-82
2023/06/10 09:33:47;;;;;;;11.15;6.00;;;21.20;99.90;;;;;;4910657;29;20500;-80
2023/06/10 09:36:22;;;;;;;12.32;5.85;;;21.30;99.90;;;;;;4934728;29;20055;-81
2023/06/10 09:38:51;;;;;;;13.95;5.10;;;21.40;99.90;;;;;;4918995;29;20043;-80
2023/06/10 09:41:25;;;;;;;14.10;5.60;;;21.50;99.90;;;;;;4905476;29;20586;-80
2023/06/10 09:43:51;;;;;;;11.25;5.63;;;21.70;99.90;;;;;;4935299;29;20052;-80
2023/06/10 09:46:19;;;;;;;8.77;5.68;;;21.70;99.90;;;;;;4920928;29;20104;-80
2023/06/10 09:48:45;;;;;;;10.73;5.80;;;21.80;99.90;;;;;;4892990;29;20055;-81
2023/06/10 09:51:12;;;;;;;13.93;5.25;;;21.90;99.90;;;;;;4888892;29;20058;-81
2023/06/10 09:53:38;;;;;;;11.38;5.68;;;22.00;99.50;;;;;;4906545;29;20046;-81
2023/06/10 09:56:05;;;;;;;7.85;5.50;;;22.00;99.90;;;;;;4893864;29;20147;-82
2023/06/10 09:58:38;;;;;;;8.88;5.22;;;22.20;99.90;;;;;;4929295;29;20143;-81
2023/06/10 10:01:09;;;;;;;10.90;5.68;;;22.30;99.30;;;;;;4927249;29;20040;-81
2023/06/10 10:03:44;;;;;;;10.02;5.50;;;22.30;98.80;;;;;;4921306;29;20036;-81
2023/06/10 10:06:29;;;;;;;10.98;5.78;;;22.50;98.30;;;;;;4927883;29;20040;-81
2023/06/10 10:08:55;;;;;;;12.73;6.88;;;22.50;98.60;;;;;;4908607;29;20058;-81
2023/06/10 10:11:50;;;;;;;12.80;6.65;;;22.50;98.10;;;;;;4903373;29;20071;-83
2023/06/10 10:14:21;;;;;;;10.73;5.53;;;22.70;98.40;;;;;;4941062;29;20038;-81
2023/06/10 10:16:51;;;;;;;10.00;5.80;;;22.80;97.50;;;;;;4887592;29;20151;-82
2023/06/10 10:19:30;;;;;;;12.02;5.90;;;22.90;97.40;;;;;;4896826;29;20048;-81
2023/06/10 10:22:09;;;;;;;13.33;5.97;;;22.90;97.70;;;;;;4927196;29;20056;-82
2023/06/10 10:24:46;;;;;;;11.88;5.72;;;23.00;97.10;;;;;;4919729;29;20047;-83
2023/06/10 10:27:25;;;;;;;9.00;6.38;;;23.10;97.80;;;;;;4895542;29;20055;-80
2023/06/10 10:29:53;;;;;;;11.73;7.45;;;23.40;95.80;;;;;;4916963;29;20640;-80
2023/06/10 10:32:29;;;;;;;9.00;5.57;;;23.40;96.80;;;;;;4911714;29;20044;-84
2023/06/10 10:35:17;;;;;;;8.55;5.55;;;23.50;96.00;;;;;;4928826;29;20044;-83
2023/06/10 10:37:46;;;;;;;11.23;5.40;;;23.70;95.90;;;;;;4921661;29;20044;-83
2023/06/10 10:40:14;;;;;;;10.63;5.72;;;23.70;95.60;;;;;;4930270;29;20694;-81
2023/06/10 10:42:43;;;;;;;9.77;5.22;;;23.70;95.50;;;;;;4892682;29;20127;-79
2023/06/10 10:45:09;;;;;;;8.85;4.93;;;23.80;96.30;;;;;;4901851;29;20473;-79
2023/06/10 10:47:35;;;;;;;11.60;4.82;;;24.00;95.80;;;;;;4917279;29;20083;-80
2023/06/10 10:50:01;;;;;;;10.82;5.80;;;24.20;95.80;;;;;;4912537;29;20048;-80
2023/06/10 10:52:40;;;;;;;13.15;5.68;;;24.30;95.00;;;;;;4932779;29;20037;-80
2023/06/10 10:55:09;;;;;;;9.02;5.00;;;24.30;94.90;;;;;;4907077;29;20057;-80
2023/06/10 10:57:35;;;;;;;12.15;5.40;;;24.40;95.20;;;;;;4908444;29;20126;-79
2023/06/10 11:00:01;;;;;;;9.45;5.35;;;24.60;94.60;;;;;;4927808;29;20138;-79
2023/06/10 11:02:38;;;;;;;12.57;5.38;;;24.70;94.70;;;;;;4909533;29;20059;-80
2023/06/10 11:05:13;;;;;;;10.57;4.90;;;24.80;94.20;;;;;;4920993;29;20048;-79
2023/06/10 11:07:57;;;;;;;9.73;5.63;;;24.80;93.30;;;;;;4912634;29;20075;-81
2023/06/10 11:10:31;;;;;;;9.88;5.45;;;24.90;94.20;;;;;;4945864;29;20048;-81
2023/06/10 11:12:58;;;;;;;9.73;6.07;;;25.10;93.80;;;;;;4899631;29;20376;-81
2023/06/10 11:15:28;;;;;;;15.75;9.02;;;25.20;93.30;;;;;;4919121;29;20036;-81
2023/06/10 11:18:08;;;;;;;11.93;6.22;;;25.20;92.90;;;;;;4922634;29;20036;-80
2023/06/10 11:20:49;;;;;;;9.25;4.85;;;25.40;93.20;;;;;;4912382;29;20143;-81
2023/06/10 11:23:33;;;;;;;11.15;5.65;;;25.40;92.60;;;;;;4920062;29;20047;-80
2023/06/10 11:26:34;;;;;;;8.60;4.85;;;25.40;92.50;;;;;;4926266;29;20060;-80
2023/06/10 11:28:59;;;;;;;8.70;4.93;;;25.50;92.50;;;;;;4924185;29;20057;-81
2023/06/10 11:31:32;;;;;;;9.65;5.20;;;25.70;92.50;;;;;;4920981;29;20044;-81
2023/06/10 11:34:06;;;;;;;9.95;5.30;;;25.90;92.40;;;;;;4894873;29;20044;-81
2023/06/10 11:36:52;;;;;;;9.90;5.43;;;26.00;92.10;;;;;;4913126;29;20077;-81
2023/06/10 11:39:26;;;;;;;9.60;6.00;;;26.10;92.50;;;;;;4905466;29;20141;-79
2023/06/10 11:41:52;;;;;;;7.72;5.38;;;26.20;91.90;;;;;;4914350;29;20044;-80
2023/06/10 11:44:19;;;;;;;10.45;5.32;;;26.20;91.90;;;;;;4917354;29;20047;-79
2023/06/10 11:46:47;;;;;;;14.18;5.68;;;26.30;91.10;;;;;;4932961;29;20044;-79
2023/06/10 11:49:12;;;;;;;8.43;4.97;;;26.40;91.00;;;;;;4930718;29;20466;-79
2023/06/10 11:51:40;;;;;;;10.07;5.03;;;26.40;90.90;;;;;;4887008;29;20048;-81
2023/06/10 11:54:06;;;;;;;13.77;5.47;;;26.50;91.30;;;;;;4917758;29;20044;-79
2023/06/10 11:56:32;;;;;;;7.32;4.90;;;26.60;90.70;;;;;;4923768;29;20048;-80
2023/06/10 11:59:04;;;;;;;11.02;5.80;;;26.60;90.70;;;;;;4928694;29;20052;-80
2023/06/10 12:01:35;;;;;;;10.93;5.40;;;26.80;90.20;;;;;;4871935;29;20048;-80
2023/06/10 12:04:08;;;;;;;9.82;5.75;;;26.90;90.10;;;;;;4898390;29;20045;-80
2023/06/10 12:06:43;;;;;;;10.52;5.28;;;26.90;89.90;;;;;;4894658;29;20059;-81
2023/06/10 12:09:29;;;;;;;12.70;5.95;;;27.00;89.20;;;;;;4883515;29;20470;-81
2023/06/10 12:12:24;;;;;;;14.18;5.82;;;27.10;89.50;;;;;;4908522;29;20119;-81
2023/06/10 12:14:57;;;;;;;11.23;5.00;;;27.30;89.40;;;;;;4914777;29;20041;-81
2023/06/10 12:17:46;;;;;;;10.15;5.70;;;27.40;87.80;;;;;;4910969;29;20044;-81
2023/06/10 12:20:34;;;;;;;14.52;6.03;;;27.50;88.10;;;;;;4876791;29;20107;-81
2023/06/10 12:23:01;;;;;;;8.60;5.32;;;27.50;87.40;;;;;;4909312;29;20055;-79
2023/06/10 12:25:31;;;;;;;10.70;5.63;;;27.40;85.80;;;;;;4894014;29;20083;-80
2023/06/10 12:27:58;;;;;;;8.93;5.72;;;27.40;86.50;;;;;;4906539;29;20044;-80
2023/06/10 12:30:27;;;;;;;10.05;5.82;;;27.40;86.20;;;;;;4919903;29;20060;-79
2023/06/10 12:32:56;;;;;;;10.32;6.32;;;27.50;85.30;;;;;;4927226;29;20916;-79
2023/06/10 12:35:26;;;;;;;11.82;5.57;;;27.60;85.60;;;;;;4919774;29;20060;-79
2023/06/10 12:38:04;;;;;;;11.75;5.28;;;27.80;84.40;;;;;;4909462;29;20053;-79
2023/06/10 12:40:35;;;;;;;7.10;5.00;;;27.70;83.60;;;;;;4911076;29;20041;-79
2023/06/10 12:43:01;;;;;;;9.23;4.68;;;27.60;84.70;;;;;;4891308;29;20059;-79
2023/06/10 12:45:37;;;;;;;8.70;5.15;;;27.80;85.40;;;;;;4925804;29;20136;-79
2023/06/10 12:48:21;;;;;;;7.70;4.85;;;27.90;83.80;;;;;;4915081;29;20375;-79